TimeCST,TemperatureF,Dew PointF,Humidity,Sea Level PressureIn,VisibilityMPH,Wind Direction,Wind SpeedMPH,Gust SpeedMPH,PrecipitationIn,Events,Conditions,WindDirDegrees,DateUTC
12:53 AM,28.9,21.0,72,30.51,10.0,SSW,3.5,-,N/A,,Clear,200,2012-11-14 06:53:00
1:53 AM,26.1,19.0,75,30.52,10.0,SSW,3.5,-,N/A,,Clear,210,2012-11-14 07:53:00
2:53 AM,30.0,23.0,75,30.51,10.0,SSW,4.6,-,N/A,,Clear,200,2012-11-14 08:53:00
3:53 AM,30.0,21.9,72,30.52,10.0,South,3.5,-,N/A,,Partly Cloudy,190,2012-11-14 09:53:00
4:53 AM,30.9,23.0,72,30.51,10.0,South,4.6,-,N/A,,Overcast,190,2012-11-14 10:53:00
5:53 AM,30.9,24.1,76,30.51,10.0,South,4.6,-,N/A,,Mostly Cloudy,180,2012-11-14 11:53:00
6:53 AM,32.0,24.1,73,30.52,10.0,South,5.8,-,N/A,,Partly Cloudy,190,2012-11-14 12:53:00
7:53 AM,33.1,25.0,72,30.53,10.0,South,4.6,-,N/A,,Overcast,180,2012-11-14 13:53:00
8:53 AM,36.0,26.1,67,30.53,10.0,South,9.2,-,N/A,,Mostly Cloudy,190,2012-11-14 14:53:00
9:53 AM,37.0,25.0,62,30.52,10.0,South,9.2,-,N/A,,Mostly Cloudy,190,2012-11-14 15:53:00
10:53 AM,39.9,25.0,55,30.51,10.0,South,10.4,-,N/A,,Mostly Cloudy,180,2012-11-14 16:53:00
11:53 AM,43.0,24.1,47,30.47,10.0,South,12.7,18.4,N/A,,Mostly Cloudy,180,2012-11-14 17:53:00
12:53 PM,45.0,24.1,44,30.45,10.0,South,9.2,-,N/A,,Mostly Cloudy,190,2012-11-14 18:53:00
1:53 PM,46.0,23.0,40,30.44,10.0,SSW,9.2,-,N/A,,Overcast,200,2012-11-14 19:53:00
2:53 PM,46.9,21.9,37,30.42,10.0,South,10.4,-,N/A,,Partly Cloudy,190,2012-11-14 20:53:00
3:53 PM,44.1,23.0,43,30.42,10.0,South,6.9,-,N/A,,Clear,190,2012-11-14 21:53:00
4:53 PM,39.0,21.9,50,30.42,10.0,South,5.8,-,N/A,,Clear,180,2012-11-14 22:53:00
5:53 PM,36.0,23.0,59,30.42,10.0,SSE,6.9,-,N/A,,Clear,160,2012-11-14 23:53:00
6:53 PM,37.0,23.0,57,30.41,10.0,South,4.6,-,N/A,,Clear,190,2012-11-15 00:53:00
7:53 PM,34.0,21.9,61,30.41,9.0,South,3.5,-,N/A,,Clear,170,2012-11-15 01:53:00
8:53 PM,32.0,21.9,66,30.41,10.0,South,5.8,-,N/A,,Clear,170,2012-11-15 02:53:00
9:53 PM,32.0,23.0,69,30.40,10.0,South,6.9,-,N/A,,Clear,180,2012-11-15 03:53:00
10:53 PM,33.1,24.1,70,30.39,10.0,South,6.9,-,N/A,,Clear,180,2012-11-15 04:53:00
11:53 PM,33.1,24.1,70,30.40,10.0,SSW,6.9,-,N/A,,Clear,200,2012-11-15 05:53:00